sensor_id;sensor_type;location;lat;lon;timestamp;noise_LAeq;noise_LA_min;noise_LA_max;noise_LA01;noise_LA95
76217;Laerm;65010;50.190;18.930;2023-01-24T00:03:01;41.64;39.20;62.25;;
76217;Laerm;65010;50.190;18.930;2023-01-24T00:06:07;40.60;37.69;64.69;;
76217;Laerm;65010;50.190;18.930;2023-01-24T00:09:16;41.91;38.16;67.38;;
76217;Laerm;65010;50.190;18.930;2023-01-24T00:12:22;42.26;39.39;63.79;;
76217;Laerm;65010;50.190;18.930;2023-01-24T00:15:29;41.76;39.43;55.50;;
76217;Laerm;65010;50.190;18.930;2023-01-24T00:18:35;41.80;39.35;58.72;;
76217;Laerm;65010;50.190;18.930;2023-01-24T00:21:42;42.20;39.15;67.18;;
76217;Laerm;65010;50.190;18.930;2023-01-24T00:24:51;42.62;37.94;68.17;;
76217;Laerm;65010;50.190;18.930;2023-01-24T00:27:57;49.11;36.53;70.66;;
76217;Laerm;65010;50.190;18.930;2023-01-24T00:31:04;41.51;38.93;65.80;;
76217;Laerm;65010;50.190;18.930;2023-01-24T00:34:11;41.32;39.05;54.48;;
76217;Laerm;65010;50.190;18.930;2023-01-24T00:37:17;42.49;38.64;65.66;;
76217;Laerm;65010;50.190;18.930;2023-01-24T00:40:26;42.30;39.48;65.37;;
76217;Laerm;65010;50.190;18.930;2023-01-24T00:43:32;45.31;39.64;63.43;;
76217;Laerm;65010;50.190;18.930;2023-01-24T00:46:39;42.62;39.62;63.24;;
76217;Laerm;65010;50.190;18.930;2023-01-24T00:49:46;42.81;39.85;67.22;;
76217;Laerm;65010;50.190;18.930;2023-01-24T00:52:53;42.63;39.95;65.28;;
76217;Laerm;65010;50.190;18.930;2023-01-24T00:56:02;42.60;39.62;66.23;;
76217;Laerm;65010;50.190;18.930;2023-01-24T00:59:09;46.95;39.28;68.35;;
76217;Laerm;65010;50.190;18.930;2023-01-24T01:02:14;46.40;39.42;67.15;;
76217;Laerm;65010;50.190;18.930;2023-01-24T01:05:22;41.90;39.27;50.55;;
76217;Laerm;65010;50.190;18.930;2023-01-24T01:08:28;41.97;39.58;58.38;;
76217;Laerm;65010;50.190;18.930;2023-01-24T01:11:37;42.00;39.58;55.54;;
76217;Laerm;65010;50.190;18.930;2023-01-24T01:14:45;42.76;39.28;65.42;;
76217;Laerm;65010;50.190;18.930;2023-01-24T01:17:51;42.33;39.36;61.86;;
76217;Laerm;65010;50.190;18.930;2023-01-24T01:20:58;42.26;39.67;61.85;;
76217;Laerm;65010;50.190;18.930;2023-01-24T01:24:05;42.44;39.28;65.59;;
76217;Laerm;65010;50.190;18.930;2023-01-24T01:27:13;42.23;39.33;65.17;;
76217;Laerm;65010;50.190;18.930;2023-01-24T01:30:21;42.19;39.80;60.09;;
76217;Laerm;65010;50.190;18.930;2023-01-24T01:33:28;42.75;39.67;65.03;;
76217;Laerm;65010;50.190;18.930;2023-01-24T01:36:35;42.43;39.97;61.90;;
76217;Laerm;65010;50.190;18.930;2023-01-24T01:39:41;42.45;40.15;60.48;;
76217;Laerm;65010;50.190;18.930;2023-01-24T01:42:54;42.72;39.93;63.89;;
76217;Laerm;65010;50.190;18.930;2023-01-24T01:46:17;42.86;39.82;67.14;;
76217;Laerm;65010;50.190;18.930;2023-01-24T01:49:28;42.64;40.49;55.56;;
76217;Laerm;65010;50.190;18.930;2023-01-24T01:52:40;42.50;39.95;64.46;;
76217;Laerm;65010;50.190;18.930;2023-01-24T01:55:56;42.89;39.84;61.44;;
76217;Laerm;65010;50.190;18.930;2023-01-24T01:59:14;42.96;40.37;63.13;;
76217;Laerm;65010;50.190;18.930;2023-01-24T02:02:23;42.90;40.07;59.35;;
76217;Laerm;65010;50.190;18.930;2023-01-24T02:05:29;43.06;40.41;62.31;;
76217;Laerm;65010;50.190;18.930;2023-01-24T02:08:36;41.29;35.96;65.38;;
76217;Laerm;65010;50.190;18.930;2023-01-24T02:11:44;38.49;36.26;59.61;;
76217;Laerm;65010;50.190;18.930;2023-01-24T02:15:00;39.66;36.72;60.89;;
76217;Laerm;65010;50.190;18.930;2023-01-24T02:18:19;40.80;37.69;57.80;;
76217;Laerm;65010;50.190;18.930;2023-01-24T02:21:26;43.89;39.17;65.14;;
76217;Laerm;65010;50.190;18.930;2023-01-24T02:24:46;41.21;38.47;56.71;;
76217;Laerm;65010;50.190;18.930;2023-01-24T02:27:57;40.08;38.01;52.52;;
76217;Laerm;65010;50.190;18.930;2023-01-24T02:31:05;40.11;38.03;55.93;;
76217;Laerm;65010;50.190;18.930;2023-01-24T02:34:12;40.63;38.27;57.15;;
76217;Laerm;65010;50.190;18.930;2023-01-24T02:37:19;40.38;38.20;51.93;;
76217;Laerm;65010;50.190;18.930;2023-01-24T02:40:29;40.37;38.36;54.76;;
76217;Laerm;65010;50.190;18.930;2023-01-24T02:43:46;40.63;38.36;62.36;;
76217;Laerm;65010;50.190;18.930;2023-01-24T02:46:54;40.59;38.25;57.75;;
76217;Laerm;65010;50.190;18.930;2023-01-24T02:50:01;41.75;38.35;66.00;;
76217;Laerm;65010;50.190;18.930;2023-01-24T02:53:08;41.62;38.44;69.40;;
76217;Laerm;65010;50.190;18.930;2023-01-24T02:56:27;41.35;38.41;66.50;;
76217;Laerm;65010;50.190;18.930;2023-01-24T02:59:48;41.46;37.57;66.33;;
76217;Laerm;65010;50.190;18.930;2023-01-24T03:02:57;41.65;38.08;66.19;;
76217;Laerm;65010;50.190;18.930;2023-01-24T03:06:04;41.05;38.37;64.41;;
76217;Laerm;65010;50.190;18.930;2023-01-24T03:09:12;40.97;38.18;64.26;;
76217;Laerm;65010;50.190;18.930;2023-01-24T03:12:40;41.68;38.17;67.53;;
76217;Laerm;65010;50.190;18.930;2023-01-24T03:16:03;40.76;38.09;60.79;;
76217;Laerm;65010;50.190;18.930;2023-01-24T03:19:22;41.08;38.24;63.13;;
76217;Laerm;65010;50.190;18.930;2023-01-24T03:22:42;41.66;38.30;68.09;;
76217;Laerm;65010;50.190;18.930;2023-01-24T03:26:00;41.19;38.51;65.49;;
76217;Laerm;65010;50.190;18.930;2023-01-24T03:29:20;41.21;38.57;62.73;;
76217;Laerm;65010;50.190;18.930;2023-01-24T03:32:42;40.21;37.02;59.78;;
76217;Laerm;65010;50.190;18.930;2023-01-24T03:36:02;40.73;37.44;57.63;;
76217;Laerm;65010;50.190;18.930;2023-01-24T03:39:11;45.12;38.51;68.41;;
76217;Laerm;65010;50.190;18.930;2023-01-24T03:42:48;41.73;38.98;68.55;;
76217;Laerm;65010;50.190;18.930;2023-01-24T03:46:00;41.71;38.64;64.94;;
76217;Laerm;65010;50.190;18.930;2023-01-24T03:49:21;42.00;38.92;66.17;;
76217;Laerm;65010;50.190;18.930;2023-01-24T03:52:40;41.61;39.12;62.61;;
76217;Laerm;65010;50.190;18.930;2023-01-24T03:55:50;41.10;37.09;63.94;;
76217;Laerm;65010;50.190;18.930;2023-01-24T03:58:57;40.44;36.55;59.61;;
76217;Laerm;65010;50.190;18.930;2023-01-24T04:02:07;41.43;38.65;60.75;;
76217;Laerm;65010;50.190;18.930;2023-01-24T04:05:18;41.83;38.99;67.98;;
76217;Laerm;65010;50.190;18.930;2023-01-24T04:08:24;42.26;38.90;59.62;;
76217;Laerm;65010;50.190;18.930;2023-01-24T04:11:32;41.33;38.40;64.61;;
76217;Laerm;65010;50.190;18.930;2023-01-24T04:14:48;42.01;39.11;63.70;;
76217;Laerm;65010;50.190;18.930;2023-01-24T04:17:56;41.40;38.98;62.05;;
76217;Laerm;65010;50.190;18.930;2023-01-24T04:21:06;41.70;39.00;64.38;;
76217;Laerm;65010;50.190;18.930;2023-01-24T04:24:13;41.58;38.96;62.39;;
76217;Laerm;65010;50.190;18.930;2023-01-24T04:27:25;41.55;38.51;62.45;;
76217;Laerm;65010;50.190;18.930;2023-01-24T04:30:45;41.20;38.39;61.23;;
76217;Laerm;65010;50.190;18.930;2023-01-24T04:34:08;45.10;38.70;64.69;;
76217;Laerm;65010;50.190;18.930;2023-01-24T04:37:19;48.41;38.42;64.81;;
76217;Laerm;65010;50.190;18.930;2023-01-24T04:40:28;44.66;38.47;62.89;;
76217;Laerm;65010;50.190;18.930;2023-01-24T04:43:35;46.22;38.52;67.56;;
76217;Laerm;65010;50.190;18.930;2023-01-24T04:46:41;43.89;38.76;63.31;;
76217;Laerm;65010;50.190;18.930;2023-01-24T04:49:48;41.05;38.29;63.26;;
76217;Laerm;65010;50.190;18.930;2023-01-24T04:52:57;45.57;38.80;63.47;;
76217;Laerm;65010;50.190;18.930;2023-01-24T04:56:09;41.41;38.79;59.85;;
76217;Laerm;65010;50.190;18.930;2023-01-24T04:59:16;41.72;38.51;65.36;;
76217;Laerm;65010;50.190;18.930;2023-01-24T05:02:28;44.00;39.21;63.07;;
76217;Laerm;65010;50.190;18.930;2023-01-24T05:05:39;43.89;38.92;61.74;;
76217;Laerm;65010;50.190;18.930;2023-01-24T05:08:48;45.65;38.80;65.12;;
76217;Laerm;65010;50.190;18.930;2023-01-24T05:11:57;47.74;39.19;64.81;;
76217;Laerm;65010;50.190;18.930;2023-01-24T05:15:07;48.34;39.18;66.10;;
76217;Laerm;65010;50.190;18.930;2023-01-24T05:18:13;41.85;39.13;65.11;;
76217;Laerm;65010;50.190;18.930;2023-01-24T05:21:20;41.57;39.04;51.99;;
76217;Laerm;65010;50.190;18.930;2023-01-24T05:24:29;50.79;39.25;69.11;;
76217;Laerm;65010;50.190;18.930;2023-01-24T05:27:36;44.73;39.05;63.74;;
76217;Laerm;65010;50.190;18.930;2023-01-24T05:30:42;46.81;39.49;65.77;;
76217;Laerm;65010;50.190;18.930;2023-01-24T05:34:00;46.53;39.01;68.24;;
76217;Laerm;65010;50.190;18.930;2023-01-24T05:37:08;49.50;39.19;69.72;;
76217;Laerm;65010;50.190;18.930;2023-01-24T05:40:21;45.04;39.05;62.58;;
76217;Laerm;65010;50.190;18.930;2023-01-24T05:43:27;44.89;39.33;63.56;;
76217;Laerm;65010;50.190;18.930;2023-01-24T05:46:37;48.36;39.25;65.54;;
76217;Laerm;65010;50.190;18.930;2023-01-24T05:49:50;48.99;39.68;67.53;;
76217;Laerm;65010;50.190;18.930;2023-01-24T05:52:56;48.63;38.91;65.31;;
76217;Laerm;65010;50.190;18.930;2023-01-24T05:56:11;48.19;39.38;63.20;;
76217;Laerm;65010;50.190;18.930;2023-01-24T05:59:23;45.06;38.92;65.10;;
76217;Laerm;65010;50.190;18.930;2023-01-24T06:02:29;44.35;38.83;68.67;;
76217;Laerm;65010;50.190;18.930;2023-01-24T06:05:36;46.57;38.72;63.03;;
76217;Laerm;65010;50.190;18.930;2023-01-24T06:08:44;44.39;39.30;61.68;;
76217;Laerm;65010;50.190;18.930;2023-01-24T06:11:53;48.31;39.62;65.67;;
76217;Laerm;65010;50.190;18.930;2023-01-24T06:15:00;46.17;39.18;64.97;;
76217;Laerm;65010;50.190;18.930;2023-01-24T06:18:13;42.06;39.68;55.09;;
76217;Laerm;65010;50.190;18.930;2023-01-24T06:21:45;49.04;39.54;67.14;;
76217;Laerm;65010;50.190;18.930;2023-01-24T06:24:57;44.61;39.68;61.32;;
76217;Laerm;65010;50.190;18.930;2023-01-24T06:28:11;48.21;39.10;66.34;;
76217;Laerm;65010;50.190;18.930;2023-01-24T06:31:33;50.34;39.42;66.58;;
76217;Laerm;65010;50.190;18.930;2023-01-24T06:35:08;50.86;39.68;66.79;;
76217;Laerm;65010;50.190;18.930;2023-01-24T06:38:21;47.71;39.85;66.55;;
76217;Laerm;65010;50.190;18.930;2023-01-24T06:41:28;51.34;39.79;68.80;;
76217;Laerm;65010;50.190;18.930;2023-01-24T06:44:39;48.65;39.63;63.80;;
76217;Laerm;65010;50.190;18.930;2023-01-24T06:47:44;49.42;39.55;63.82;;
76217;Laerm;65010;50.190;18.930;2023-01-24T06:50:51;47.17;39.60;66.51;;
76217;Laerm;65010;50.190;18.930;2023-01-24T06:53:57;48.16;39.63;64.87;;
76217;Laerm;65010;50.190;18.930;2023-01-24T06:57:06;47.57;39.93;64.08;;
76217;Laerm;65010;50.190;18.930;2023-01-24T07:00:19;49.58;39.58;65.84;;
76217;Laerm;65010;50.190;18.930;2023-01-24T07:03:25;50.24;39.77;66.84;;
76217;Laerm;65010;50.190;18.930;2023-01-24T07:06:31;46.05;38.45;67.72;;
76217;Laerm;65010;50.190;18.930;2023-01-24T07:09:38;51.42;38.68;67.88;;
76217;Laerm;65010;50.190;18.930;2023-01-24T07:12:44;46.39;39.43;64.22;;
76217;Laerm;65010;50.190;18.930;2023-01-24T07:15:53;43.70;39.66;58.80;;
76217;Laerm;65010;50.190;18.930;2023-01-24T07:19:01;47.18;37.72;64.72;;
76217;Laerm;65010;50.190;18.930;2023-01-24T07:22:11;49.60;37.59;66.55;;
76217;Laerm;65010;50.190;18.930;2023-01-24T07:25:21;49.61;39.18;66.15;;
76217;Laerm;65010;50.190;18.930;2023-01-24T07:28:28;48.15;40.09;65.73;;
76217;Laerm;65010;50.190;18.930;2023-01-24T07:31:37;48.70;40.03;68.12;;
76217;Laerm;65010;50.190;18.930;2023-01-24T07:34:43;42.10;39.76;53.46;;
76217;Laerm;65010;50.190;18.930;2023-01-24T07:37:49;45.12;40.08;59.17;;
76217;Laerm;65010;50.190;18.930;2023-01-24T07:40:56;53.30;39.64;70.34;;
76217;Laerm;65010;50.190;18.930;2023-01-24T07:44:02;44.82;39.75;58.38;;
76217;Laerm;65010;50.190;18.930;2023-01-24T07:47:12;47.27;40.15;65.09;;
76217;Laerm;65010;50.190;18.930;2023-01-24T07:50:18;48.44;40.01;63.92;;
76217;Laerm;65010;50.190;18.930;2023-01-24T07:53:25;46.42;39.80;61.66;;
76217;Laerm;65010;50.190;18.930;2023-01-24T07:56:31;47.41;39.40;62.61;;
76217;Laerm;65010;50.190;18.930;2023-01-24T07:59:37;46.21;40.11;66.62;;
76217;Laerm;65010;50.190;18.930;2023-01-24T08:02:48;47.55;40.21;63.87;;
76217;Laerm;65010;50.190;18.930;2023-01-24T08:05:55;47.35;39.86;63.13;;
76217;Laerm;65010;50.190;18.930;2023-01-24T08:09:01;43.88;40.06;60.53;;
76217;Laerm;65010;50.190;18.930;2023-01-24T08:12:08;49.54;39.81;66.92;;
76217;Laerm;65010;50.190;18.930;2023-01-24T08:15:14;42.23;39.73;48.62;;
76217;Laerm;65010;50.190;18.930;2023-01-24T08:18:23;47.28;39.94;67.35;;
76217;Laerm;65010;50.190;18.930;2023-01-24T08:21:29;44.48;40.10;64.81;;
76217;Laerm;65010;50.190;18.930;2023-01-24T08:24:36;42.64;39.92;48.41;;
76217;Laerm;65010;50.190;18.930;2023-01-24T08:27:42;46.69;40.64;62.82;;
76217;Laerm;65010;50.190;18.930;2023-01-24T08:30:51;46.42;40.40;62.00;;
76217;Laerm;65010;50.190;18.930;2023-01-24T08:33:59;47.74;40.39;64.73;;
76217;Laerm;65010;50.190;18.930;2023-01-24T08:37:06;47.88;40.47;63.61;;
76217;Laerm;65010;50.190;18.930;2023-01-24T08:40:12;44.45;40.12;59.49;;
76217;Laerm;65010;50.190;18.930;2023-01-24T08:43:21;45.46;40.31;62.37;;
76217;Laerm;65010;50.190;18.930;2023-01-24T08:46:27;52.25;40.41;77.43;;
76217;Laerm;65010;50.190;18.930;2023-01-24T08:49:36;45.98;40.54;64.59;;
76217;Laerm;65010;50.190;18.930;2023-01-24T08:52:42;47.54;40.17;67.75;;
76217;Laerm;65010;50.190;18.930;2023-01-24T08:55:49;42.88;40.43;51.54;;
76217;Laerm;65010;50.190;18.930;2023-01-24T08:58:55;45.09;40.40;63.44;;
76217;Laerm;65010;50.190;18.930;2023-01-24T09:02:01;42.92;40.68;52.64;;
76217;Laerm;65010;50.190;18.930;2023-01-24T09:05:10;47.89;40.74;64.82;;
76217;Laerm;65010;50.190;18.930;2023-01-24T09:08:17;47.75;40.22;63.77;;
76217;Laerm;65010;50.190;18.930;2023-01-24T09:11:23;46.97;39.88;62.45;;
76217;Laerm;65010;50.190;18.930;2023-01-24T09:14:30;45.22;40.51;61.56;;
76217;Laerm;65010;50.190;18.930;2023-01-24T09:17:37;48.66;40.42;70.39;;
76217;Laerm;65010;50.190;18.930;2023-01-24T09:20:47;49.95;40.48;68.56;;
76217;Laerm;65010;50.190;18.930;2023-01-24T09:23:54;46.76;40.31;61.90;;
76217;Laerm;65010;50.190;18.930;2023-01-24T09:27:01;47.14;40.66;61.24;;
76217;Laerm;65010;50.190;18.930;2023-01-24T09:30:11;46.28;40.24;67.87;;
76217;Laerm;65010;50.190;18.930;2023-01-24T09:33:18;48.39;40.39;63.82;;
76217;Laerm;65010;50.190;18.930;2023-01-24T09:36:28;46.82;40.23;63.88;;
76217;Laerm;65010;50.190;18.930;2023-01-24T09:39:35;48.79;40.39;65.10;;
76217;Laerm;65010;50.190;18.930;2023-01-24T09:42:52;46.64;40.28;63.50;;
76217;Laerm;65010;50.190;18.930;2023-01-24T09:46:26;52.83;35.92;69.83;;
76217;Laerm;65010;50.190;18.930;2023-01-24T09:49:41;46.73;36.46;63.20;;
76217;Laerm;65010;50.190;18.930;2023-01-24T09:52:57;52.44;36.04;68.19;;
76217;Laerm;65010;50.190;18.930;2023-01-24T09:56:07;40.74;35.48;60.42;;
76217;Laerm;65010;50.190;18.930;2023-01-24T09:59:32;47.06;38.20;66.12;;
76217;Laerm;65010;50.190;18.930;2023-01-24T10:02:40;50.08;39.79;66.59;;
76217;Laerm;65010;50.190;18.930;2023-01-24T10:05:50;47.27;39.02;63.42;;
76217;Laerm;65010;50.190;18.930;2023-01-24T10:09:12;42.43;38.27;60.75;;
76217;Laerm;65010;50.190;18.930;2023-01-24T10:12:44;44.79;38.66;71.29;;
76217;Laerm;65010;50.190;18.930;2023-01-24T10:16:09;51.03;38.64;70.41;;
76217;Laerm;65010;50.190;18.930;2023-01-24T10:19:44;47.61;38.36;65.04;;
76217;Laerm;65010;50.190;18.930;2023-01-24T10:23:11;44.79;37.88;62.30;;
76217;Laerm;65010;50.190;18.930;2023-01-24T10:26:34;48.07;38.48;64.04;;
76217;Laerm;65010;50.190;18.930;2023-01-24T10:29:54;44.99;38.61;62.70;;
76217;Laerm;65010;50.190;18.930;2023-01-24T10:33:11;45.93;38.46;63.91;;
76217;Laerm;65010;50.190;18.930;2023-01-24T10:36:32;48.41;38.74;67.20;;
76217;Laerm;65010;50.190;18.930;2023-01-24T10:39:41;48.31;39.49;66.48;;
76217;Laerm;65010;50.190;18.930;2023-01-24T10:42:50;46.29;38.45;65.07;;
76217;Laerm;65010;50.190;18.930;2023-01-24T10:46:29;47.31;38.40;64.02;;
76217;Laerm;65010;50.190;18.930;2023-01-24T10:49:41;45.86;37.86;62.87;;
76217;Laerm;65010;50.190;18.930;2023-01-24T10:52:51;49.01;38.28;65.94;;
76217;Laerm;65010;50.190;18.930;2023-01-24T10:56:00;49.95;38.77;67.64;;
76217;Laerm;65010;50.190;18.930;2023-01-24T10:59:14;46.41;39.27;64.10;;
76217;Laerm;65010;50.190;18.930;2023-01-24T11:02:24;49.21;39.50;65.85;;
76217;Laerm;65010;50.190;18.930;2023-01-24T11:05:43;46.50;39.76;64.14;;
76217;Laerm;65010;50.190;18.930;2023-01-24T11:08:55;45.65;39.76;61.72;;
76217;Laerm;65010;50.190;18.930;2023-01-24T11:12:04;50.05;36.15;68.01;;
76217;Laerm;65010;50.190;18.930;2023-01-24T11:15:23;46.01;34.98;65.24;;
76217;Laerm;65010;50.190;18.930;2023-01-24T11:18:33;44.51;35.65;64.67;;
76217;Laerm;65010;50.190;18.930;2023-01-24T11:21:52;47.69;38.08;63.83;;
76217;Laerm;65010;50.190;18.930;2023-01-24T11:25:03;44.75;37.07;61.14;;
76217;Laerm;65010;50.190;18.930;2023-01-24T11:28:25;44.51;38.35;62.49;;
76217;Laerm;65010;50.190;18.930;2023-01-24T11:31:39;48.37;38.39;64.17;;
76217;Laerm;65010;50.190;18.930;2023-01-24T11:35:02;47.56;38.21;63.91;;
76217;Laerm;65010;50.190;18.930;2023-01-24T11:38:29;49.39;38.33;69.06;;
76217;Laerm;65010;50.190;18.930;2023-01-24T11:41:51;48.57;38.67;63.22;;
76217;Laerm;65010;50.190;18.930;2023-01-24T11:45:32;47.94;38.82;68.07;;
76217;Laerm;65010;50.190;18.930;2023-01-24T11:48:55;41.03;38.53;52.69;;
76217;Laerm;65010;50.190;18.930;2023-01-24T11:52:28;42.81;38.09;60.37;;
76217;Laerm;65010;50.190;18.930;2023-01-24T11:55:54;45.13;38.50;65.32;;
76217;Laerm;65010;50.190;18.930;2023-01-24T11:59:27;42.07;38.23;58.17;;
76217;Laerm;65010;50.190;18.930;2023-01-24T12:03:09;45.60;38.58;63.61;;
76217;Laerm;65010;50.190;18.930;2023-01-24T12:06:42;45.14;38.71;66.39;;
76217;Laerm;65010;50.190;18.930;2023-01-24T12:10:04;47.32;38.68;66.92;;
76217;Laerm;65010;50.190;18.930;2023-01-24T12:13:32;46.38;38.16;62.43;;
76217;Laerm;65010;50.190;18.930;2023-01-24T12:16:58;49.60;38.83;68.43;;
76217;Laerm;65010;50.190;18.930;2023-01-24T12:20:55;50.24;38.67;69.47;;
76217;Laerm;65010;50.190;18.930;2023-01-24T12:24:18;46.31;38.60;63.84;;
76217;Laerm;65010;50.190;18.930;2023-01-24T12:27:31;50.13;38.34;68.18;;
76217;Laerm;65010;50.190;18.930;2023-01-24T12:30:48;46.49;38.77;67.51;;
76217;Laerm;65010;50.190;18.930;2023-01-24T12:34:08;45.10;38.79;65.53;;
76217;Laerm;65010;50.190;18.930;2023-01-24T12:37:28;49.67;38.85;64.05;;
76217;Laerm;65010;50.190;18.930;2023-01-24T12:40:52;44.31;38.76;65.27;;
76217;Laerm;65010;50.190;18.930;2023-01-24T12:44:23;49.50;38.39;65.68;;
76217;Laerm;65010;50.190;18.930;2023-01-24T12:47:43;44.00;38.91;61.41;;
76217;Laerm;65010;50.190;18.930;2023-01-24T12:50:58;45.37;38.40;63.97;;
76217;Laerm;65010;50.190;18.930;2023-01-24T12:54:15;48.51;38.94;64.28;;
76217;Laerm;65010;50.190;18.930;2023-01-24T12:57:32;44.20;38.38;60.61;;
76217;Laerm;65010;50.190;18.930;2023-01-24T13:01:01;47.57;38.14;65.55;;
76217;Laerm;65010;50.190;18.930;2023-01-24T13:04:25;49.42;38.19;66.84;;
76217;Laerm;65010;50.190;18.930;2023-01-24T13:08:05;46.59;38.64;63.81;;
76217;Laerm;65010;50.190;18.930;2023-01-24T13:11:22;48.73;38.54;65.03;;
76217;Laerm;65010;50.190;18.930;2023-01-24T13:14:40;40.65;38.17;49.44;;
76217;Laerm;65010;50.190;18.930;2023-01-24T13:18:16;45.98;38.54;63.25;;
76217;Laerm;65010;50.190;18.930;2023-01-24T13:21:40;45.20;38.56;64.32;;
76217;Laerm;65010;50.190;18.930;2023-01-24T13:25:08;47.26;38.89;68.41;;
76217;Laerm;65010;50.190;18.930;2023-01-24T13:28:31;47.32;39.07;63.06;;
76217;Laerm;65010;50.190;18.930;2023-01-24T13:31:57;46.82;38.71;64.96;;
76217;Laerm;65010;50.190;18.930;2023-01-24T13:35:18;49.05;38.78;66.46;;
76217;Laerm;65010;50.190;18.930;2023-01-24T13:38:30;50.16;38.63;71.37;;
76217;Laerm;65010;50.190;18.930;2023-01-24T13:42:02;49.16;38.99;65.97;;
76217;Laerm;65010;50.190;18.930;2023-01-24T13:45:48;44.18;38.63;60.80;;
76217;Laerm;65010;50.190;18.930;2023-01-24T13:48:57;52.12;39.21;66.79;;
76217;Laerm;65010;50.190;18.930;2023-01-24T13:52:40;46.82;38.75;66.58;;
76217;Laerm;65010;50.190;18.930;2023-01-24T13:56:02;47.30;38.10;63.60;;
76217;Laerm;65010;50.190;18.930;2023-01-24T13:59:13;44.34;38.83;58.96;;
76217;Laerm;65010;50.190;18.930;2023-01-24T14:02:29;48.63;38.70;69.73;;
76217;Laerm;65010;50.190;18.930;2023-01-24T14:05:47;48.42;39.15;66.98;;
76217;Laerm;65010;50.190;18.930;2023-01-24T14:09:11;48.68;37.82;66.19;;
76217;Laerm;65010;50.190;18.930;2023-01-24T14:12:19;46.85;36.88;64.03;;
76217;Laerm;65010;50.190;18.930;2023-01-24T14:15:29;50.72;38.92;66.91;;
76217;Laerm;65010;50.190;18.930;2023-01-24T14:18:52;49.40;39.08;63.78;;
76217;Laerm;65010;50.190;18.930;2023-01-24T14:22:19;46.51;39.10;64.03;;
76217;Laerm;65010;50.190;18.930;2023-01-24T14:25:40;51.81;38.98;68.57;;
76217;Laerm;65010;50.190;18.930;2023-01-24T14:32:25;43.81;39.10;60.03;;
76217;Laerm;65010;50.190;18.930;2023-01-24T14:35:57;44.28;39.09;59.80;;
76217;Laerm;65010;50.190;18.930;2023-01-24T14:39:19;47.45;38.82;63.32;;
76217;Laerm;65010;50.190;18.930;2023-01-24T14:42:27;50.81;39.23;68.50;;
76217;Laerm;65010;50.190;18.930;2023-01-24T14:45:34;48.37;38.90;68.43;;
76217;Laerm;65010;50.190;18.930;2023-01-24T14:48:41;49.07;39.12;67.05;;
76217;Laerm;65010;50.190;18.930;2023-01-24T14:51:47;47.17;38.98;65.59;;
76217;Laerm;65010;50.190;18.930;2023-01-24T14:54:59;51.19;39.25;68.94;;
76217;Laerm;65010;50.190;18.930;2023-01-24T14:58:22;46.09;38.47;62.31;;
76217;Laerm;65010;50.190;18.930;2023-01-24T15:01:31;47.52;38.42;65.13;;
76217;Laerm;65010;50.190;18.930;2023-01-24T15:04:44;45.17;38.74;64.03;;
76217;Laerm;65010;50.190;18.930;2023-01-24T15:07:52;50.49;39.04;67.06;;
76217;Laerm;65010;50.190;18.930;2023-01-24T15:11:05;46.90;38.85;63.21;;
76217;Laerm;65010;50.190;18.930;2023-01-24T15:14:19;49.85;39.17;65.48;;
76217;Laerm;65010;50.190;18.930;2023-01-24T15:17:29;49.93;38.84;65.72;;
76217;Laerm;65010;50.190;18.930;2023-01-24T15:20:36;49.89;38.95;65.41;;
76217;Laerm;65010;50.190;18.930;2023-01-24T15:23:51;51.38;38.65;66.28;;
76217;Laerm;65010;50.190;18.930;2023-01-24T15:27:33;46.28;38.35;63.85;;
76217;Laerm;65010;50.190;18.930;2023-01-24T15:30:51;48.17;38.98;67.20;;
76217;Laerm;65010;50.190;18.930;2023-01-24T15:34:00;47.92;38.84;67.12;;
76217;Laerm;65010;50.190;18.930;2023-01-24T15:37:14;49.57;39.23;65.19;;
76217;Laerm;65010;50.190;18.930;2023-01-24T15:40:20;48.08;39.18;65.19;;
76217;Laerm;65010;50.190;18.930;2023-01-24T15:43:34;48.11;39.03;67.74;;
76217;Laerm;65010;50.190;18.930;2023-01-24T16:02:23;49.90;38.93;70.60;;
76217;Laerm;65010;50.190;18.930;2023-01-24T16:05:30;48.96;38.63;67.26;;
76217;Laerm;65010;50.190;18.930;2023-01-24T16:08:36;44.85;38.94;61.96;;
76217;Laerm;65010;50.190;18.930;2023-01-24T16:11:47;44.42;38.56;60.88;;
76217;Laerm;65010;50.190;18.930;2023-01-24T16:14:55;46.92;38.49;65.47;;
76217;Laerm;65010;50.190;18.930;2023-01-24T16:18:14;48.14;39.15;64.53;;
76217;Laerm;65010;50.190;18.930;2023-01-24T16:21:22;45.78;38.55;61.32;;
76217;Laerm;65010;50.190;18.930;2023-01-24T16:24:29;46.28;38.96;61.76;;
76217;Laerm;65010;50.190;18.930;2023-01-24T16:27:37;46.43;38.99;63.41;;
76217;Laerm;65010;50.190;18.930;2023-01-24T16:30:45;47.45;39.06;65.18;;
76217;Laerm;65010;50.190;18.930;2023-01-24T16:33:55;46.64;39.32;63.03;;
76217;Laerm;65010;50.190;18.930;2023-01-24T16:37:02;43.45;38.98;63.90;;
76217;Laerm;65010;50.190;18.930;2023-01-24T16:40:12;41.53;39.09;51.38;;
76217;Laerm;65010;50.190;18.930;2023-01-24T16:43:22;47.10;38.89;63.77;;
76217;Laerm;65010;50.190;18.930;2023-01-24T16:46:33;41.59;39.09;51.98;;
76217;Laerm;65010;50.190;18.930;2023-01-24T16:49:51;47.97;39.01;64.74;;
76217;Laerm;65010;50.190;18.930;2023-01-24T16:52:57;46.23;39.13;61.35;;
76217;Laerm;65010;50.190;18.930;2023-01-24T16:56:07;50.37;38.76;64.80;;
76217;Laerm;65010;50.190;18.930;2023-01-24T19:47:59;43.19;34.75;61.36;;
76217;Laerm;65010;50.190;18.930;2023-01-24T19:51:22;44.64;35.02;60.70;;
76217;Laerm;65010;50.190;18.930;2023-01-24T19:54:31;45.98;35.25;66.85;;
76217;Laerm;65010;50.190;18.930;2023-01-24T19:57:42;40.71;34.93;58.61;;
76217;Laerm;65010;50.190;18.930;2023-01-24T20:00:48;47.19;33.70;66.79;;
76217;Laerm;65010;50.190;18.930;2023-01-24T20:03:59;44.02;33.56;61.23;;
76217;Laerm;65010;50.190;18.930;2023-01-24T20:07:24;44.61;36.65;60.73;;
76217;Laerm;65010;50.190;18.930;2023-01-24T20:10:31;46.96;37.06;66.92;;
76217;Laerm;65010;50.190;18.930;2023-01-24T20:13:37;44.02;37.86;61.54;;
76217;Laerm;65010;50.190;18.930;2023-01-24T20:16:44;44.18;38.19;63.09;;
76217;Laerm;65010;50.190;18.930;2023-01-24T20:19:52;47.41;38.44;68.38;;
76217;Laerm;65010;50.190;18.930;2023-01-24T20:23:03;45.81;38.35;64.08;;
76217;Laerm;65010;50.190;18.930;2023-01-24T20:26:10;41.88;38.50;54.84;;
76217;Laerm;65010;50.190;18.930;2023-01-24T20:29:17;45.35;38.43;64.23;;
76217;Laerm;65010;50.190;18.930;2023-01-24T20:32:24;40.33;38.05;47.92;;
76217;Laerm;65010;50.190;18.930;2023-01-24T20:35:42;45.14;37.38;64.23;;
76217;Laerm;65010;50.190;18.930;2023-01-24T20:38:53;40.75;38.54;48.46;;
76217;Laerm;65010;50.190;18.930;2023-01-24T20:42:01;40.69;38.81;42.69;;
76217;Laerm;65010;50.190;18.930;2023-01-24T20:45:09;46.99;38.45;66.79;;
76217;Laerm;65010;50.190;18.930;2023-01-24T20:48:16;44.07;35.27;61.07;;
76217;Laerm;65010;50.190;18.930;2023-01-24T20:51:26;44.40;34.77;62.45;;
76217;Laerm;65010;50.190;18.930;2023-01-24T20:54:34;38.64;35.01;45.27;;